Time,TemperatureF,DewpointF,PressureIn,WindDirection,WindDirectionDegrees,WindSpeedMPH,WindSpeedGustMPH,Humidity,HourlyPrecipIn,Conditions,Clouds,dailyrainin,SolarRadiationWatts/m^2,SoftwareType,DateUTC
2013-03-08 00:03:00,42.6,37.6,30.24,ENE,75,0.0,0.0,82,0.00,,,0.00,0.0,meteohub,2013-03-08 06:03:00,
2013-03-08 00:08:00,42.8,37.8,30.24,ENE,75,0.0,0.0,82,0.00,,,0.00,0.0,meteohub,2013-03-08 06:08:00,
2013-03-08 00:13:00,43.0,37.9,30.23,ENE,75,0.0,0.0,82,0.00,,,0.00,0.0,meteohub,2013-03-08 06:13:00,
2013-03-08 00:18:00,42.8,37.8,30.23,ENE,75,0.0,0.0,82,0.00,,,0.00,0.0,meteohub,2013-03-08 06:18:00,
2013-03-08 00:23:00,42.4,37.6,30.23,ENE,75,0.0,0.0,83,0.00,,,0.00,0.0,meteohub,2013-03-08 06:23:00,
2013-03-08 00:28:00,42.4,37.6,30.23,ENE,75,0.0,0.0,83,0.00,,,0.00,0.0,meteohub,2013-03-08 06:28:00,
2013-03-08 00:33:00,42.1,37.6,30.23,ENE,75,0.0,0.0,84,0.00,,,0.00,0.0,meteohub,2013-03-08 06:33:00,
2013-03-08 00:38:00,42.1,37.6,30.23,ENE,75,0.0,0.0,84,0.00,,,0.00,0.0,meteohub,2013-03-08 06:38:00,
2013-03-08 00:43:00,42.3,38.1,30.23,ENE,75,0.0,0.0,85,0.00,,,0.00,0.0,meteohub,2013-03-08 06:43:00,
2013-03-08 00:48:00,42.1,37.9,30.24,ENE,75,0.0,0.0,85,0.00,,,0.00,0.0,meteohub,2013-03-08 06:48:00,
2013-03-08 00:53:00,41.7,37.6,30.24,ENE,75,0.0,0.0,85,0.00,,,0.00,0.0,meteohub,2013-03-08 06:53:00,
2013-03-08 00:58:00,42.1,38.1,30.24,ENE,75,0.0,0.0,86,0.00,,,0.00,0.0,meteohub,2013-03-08 06:58:00,
2013-03-08 01:03:00,42.1,38.1,30.24,ENE,75,0.0,0.0,86,0.00,,,0.00,0.0,meteohub,2013-03-08 07:03:00,
2013-03-08 01:08:00,42.3,38.3,30.24,ENE,75,0.0,0.0,86,0.00,,,0.00,0.0,meteohub,2013-03-08 07:08:00,
2013-03-08 01:13:00,42.1,38.1,30.24,ENE,75,0.0,0.0,86,0.00,,,0.00,0.0,meteohub,2013-03-08 07:13:00,
2013-03-08 01:18:00,41.7,37.8,30.24,ENE,75,0.0,0.0,86,0.00,,,0.00,0.0,meteohub,2013-03-08 07:18:00,
2013-03-08 01:23:00,41.5,37.6,30.24,ENE,75,0.0,0.0,86,0.00,,,0.00,0.0,meteohub,2013-03-08 07:23:00,
2013-03-08 01:28:00,41.4,37.8,30.24,ENE,75,0.0,0.0,87,0.00,,,0.00,0.0,meteohub,2013-03-08 07:28:00,
2013-03-08 01:33:00,41.5,38.3,30.24,ENE,75,0.0,0.0,88,0.00,,,0.00,0.0,meteohub,2013-03-08 07:33:00,
2013-03-08 01:38:00,41.7,38.7,30.24,ENE,75,0.0,0.0,89,0.00,,,0.00,0.0,meteohub,2013-03-08 07:38:00,
2013-03-08 01:43:00,41.5,38.5,30.24,ENE,75,0.0,0.0,89,0.00,,,0.00,0.0,meteohub,2013-03-08 07:43:00,
2013-03-08 01:48:00,41.5,38.5,30.24,ENE,75,0.0,0.0,89,0.00,,,0.00,0.0,meteohub,2013-03-08 07:48:00,
2013-03-08 01:53:00,41.5,38.3,30.23,ENE,75,0.0,0.0,88,0.00,,,0.00,0.0,meteohub,2013-03-08 07:53:00,
2013-03-08 01:58:00,41.5,37.9,30.23,ENE,75,0.0,0.0,87,0.00,,,0.00,0.0,meteohub,2013-03-08 07:58:00,
2013-03-08 02:03:00,41.4,37.8,30.24,ENE,75,0.0,0.0,87,0.00,,,0.00,0.0,meteohub,2013-03-08 08:03:00,
2013-03-08 02:08:00,41.4,37.8,30.24,ENE,75,0.0,1.0,87,0.00,,,0.00,0.0,meteohub,2013-03-08 08:08:00,
2013-03-08 02:13:00,41.2,37.6,30.24,ENE,75,0.0,2.0,87,0.00,,,0.00,0.0,meteohub,2013-03-08 08:13:00,
2013-03-08 02:18:00,40.8,37.2,30.23,ENE,75,0.0,2.0,87,0.00,,,0.00,0.0,meteohub,2013-03-08 08:18:00,
2013-03-08 02:23:00,40.6,37.4,30.23,ENE,75,0.0,1.0,88,0.00,,,0.00,0.0,meteohub,2013-03-08 08:23:00,
2013-03-08 02:28:00,40.5,37.2,30.22,ENE,75,0.0,0.0,88,0.00,,,0.00,0.0,meteohub,2013-03-08 08:28:00,
2013-03-08 02:33:00,40.5,37.2,30.22,ENE,75,0.0,0.0,88,0.00,,,0.00,0.0,meteohub,2013-03-08 08:33:00,
2013-03-08 02:38:00,40.3,37.0,30.22,ENE,75,0.0,0.0,88,0.00,,,0.00,0.0,meteohub,2013-03-08 08:38:00,
2013-03-08 02:43:00,40.1,37.0,30.22,ENE,75,0.0,0.0,89,0.00,,,0.00,0.0,meteohub,2013-03-08 08:43:00,
2013-03-08 02:48:00,40.1,37.0,30.22,ENE,75,0.0,0.0,89,0.00,,,0.00,0.0,meteohub,2013-03-08 08:48:00,
2013-03-08 02:53:00,39.7,36.7,30.22,ENE,75,0.0,0.0,89,0.00,,,0.00,0.0,meteohub,2013-03-08 08:53:00,
2013-03-08 02:58:00,39.7,36.7,30.22,ENE,75,0.0,0.0,89,0.00,,,0.00,0.0,meteohub,2013-03-08 08:58:00,
2013-03-08 03:04:00,39.6,36.5,30.22,ENE,75,0.0,0.0,89,0.00,,,0.00,0.0,meteohub,2013-03-08 09:04:00,
2013-03-08 03:09:00,39.4,36.7,30.22,ENE,75,0.0,0.0,90,0.00,,,0.00,0.0,meteohub,2013-03-08 09:09:00,
2013-03-08 03:14:00,39.6,36.9,30.22,ENE,75,0.0,0.0,90,0.00,,,0.00,0.0,meteohub,2013-03-08 09:14:00,
2013-03-08 03:19:00,39.4,36.7,30.22,ENE,75,0.0,0.0,90,0.00,,,0.00,0.0,meteohub,2013-03-08 09:19:00,
2013-03-08 03:24:00,39.4,36.7,30.22,ENE,75,0.0,0.0,90,0.00,,,0.00,0.0,meteohub,2013-03-08 09:24:00,
2013-03-08 03:29:00,39.4,37.0,30.22,ENE,75,0.0,0.0,91,0.00,,,0.00,0.0,meteohub,2013-03-08 09:29:00,
2013-03-08 03:34:00,39.2,36.9,30.22,ENE,75,0.0,0.0,91,0.00,,,0.00,0.0,meteohub,2013-03-08 09:34:00,
2013-03-08 03:39:00,39.0,36.7,30.22,ENE,75,0.0,0.0,91,0.00,,,0.00,0.0,meteohub,2013-03-08 09:39:00,
2013-03-08 03:44:00,39.0,36.9,30.22,ENE,75,0.0,0.0,92,0.00,,,0.00,0.0,meteohub,2013-03-08 09:44:00,
2013-03-08 03:49:00,38.8,36.7,30.22,ENE,75,0.0,0.0,92,0.00,,,0.00,0.0,meteohub,2013-03-08 09:49:00,
2013-03-08 03:54:00,38.5,36.3,30.22,ENE,75,0.0,0.0,92,0.00,,,0.00,0.0,meteohub,2013-03-08 09:54:00,
2013-03-08 03:59:00,38.5,36.3,30.22,ENE,75,0.0,0.0,92,0.00,,,0.00,0.0,meteohub,2013-03-08 09:59:00,
2013-03-08 04:04:00,38.1,36.0,30.22,ENE,75,0.0,0.0,92,0.00,,,0.00,0.0,meteohub,2013-03-08 10:04:00,
2013-03-08 04:09:00,38.1,36.0,30.22,ENE,75,0.0,0.0,92,0.00,,,0.00,0.0,meteohub,2013-03-08 10:09:00,
2013-03-08 04:14:00,37.9,35.8,30.23,ENE,75,0.0,0.0,92,0.00,,,0.00,0.0,meteohub,2013-03-08 10:14:00,
2013-03-08 04:19:00,38.1,36.3,30.23,ENE,75,0.0,0.0,93,0.00,,,0.00,0.0,meteohub,2013-03-08 10:19:00,
2013-03-08 04:24:00,38.1,36.3,30.22,ENE,75,0.0,0.0,93,0.00,,,0.00,0.0,meteohub,2013-03-08 10:24:00,
2013-03-08 04:29:00,38.3,36.5,30.22,ENE,75,0.0,0.0,93,0.00,,,0.00,0.0,meteohub,2013-03-08 10:29:00,
2013-03-08 04:34:00,38.3,36.5,30.23,ENE,75,0.0,0.0,93,0.00,,,0.00,0.0,meteohub,2013-03-08 10:34:00,
2013-03-08 04:39:00,38.1,36.0,30.23,ENE,75,0.0,0.0,92,0.00,,,0.00,0.0,meteohub,2013-03-08 10:39:00,
2013-03-08 04:44:00,38.1,36.3,30.23,ENE,75,0.0,0.0,93,0.00,,,0.00,0.0,meteohub,2013-03-08 10:44:00,
2013-03-08 04:49:00,38.1,36.3,30.23,ENE,75,0.0,0.0,93,0.00,,,0.00,0.0,meteohub,2013-03-08 10:49:00,
2013-03-08 04:54:00,38.5,36.7,30.23,ENE,75,0.0,0.0,93,0.00,,,0.00,0.0,meteohub,2013-03-08 10:54:00,
2013-03-08 04:59:00,38.7,36.9,30.23,ENE,75,0.0,0.0,93,0.00,,,0.00,0.0,meteohub,2013-03-08 10:59:00,
2013-03-08 05:04:00,38.5,36.7,30.23,ENE,75,0.0,0.0,93,0.00,,,0.00,0.0,meteohub,2013-03-08 11:04:00,
2013-03-08 05:09:00,38.5,36.7,30.23,ENE,75,0.0,0.0,93,0.00,,,0.00,0.0,meteohub,2013-03-08 11:09:00,
2013-03-08 05:14:00,38.5,36.7,30.23,ENE,75,0.0,0.0,93,0.00,,,0.00,0.0,meteohub,2013-03-08 11:14:00,
2013-03-08 05:19:00,38.3,36.5,30.23,ENE,75,0.0,0.0,93,0.00,,,0.00,0.0,meteohub,2013-03-08 11:19:00,
2013-03-08 05:24:00,38.5,36.7,30.23,ENE,75,0.0,0.0,93,0.00,,,0.00,0.0,meteohub,2013-03-08 11:24:00,
2013-03-08 05:29:00,38.3,36.5,30.23,ENE,75,0.0,0.0,93,0.00,,,0.00,0.0,meteohub,2013-03-08 11:29:00,
2013-03-08 05:34:00,37.9,36.1,30.24,ENE,75,0.0,0.0,93,0.00,,,0.00,0.0,meteohub,2013-03-08 11:34:00,
2013-03-08 05:40:00,38.1,36.3,30.24,ENE,75,0.0,0.0,93,0.00,,,0.00,0.0,meteohub,2013-03-08 11:40:00,
2013-03-08 05:45:00,37.9,36.1,30.24,ENE,75,0.0,0.0,93,0.00,,,0.00,0.0,meteohub,2013-03-08 11:45:00,
2013-03-08 05:50:00,37.8,36.0,30.25,ENE,75,0.0,0.0,93,0.00,,,0.00,0.0,meteohub,2013-03-08 11:50:00,
2013-03-08 05:55:00,37.8,36.0,30.24,ENE,75,0.0,0.0,93,0.00,,,0.00,0.0,meteohub,2013-03-08 11:55:00,
2013-03-08 06:00:00,37.8,36.0,30.24,ENE,75,0.0,0.0,93,0.00,,,0.00,0.0,meteohub,2013-03-08 12:00:00,
2013-03-08 06:05:00,37.8,36.0,30.24,ENE,75,0.0,0.0,93,0.00,,,0.00,0.0,meteohub,2013-03-08 12:05:00,
2013-03-08 06:10:00,37.6,35.8,30.25,ENE,75,0.0,0.0,93,0.00,,,0.00,0.0,meteohub,2013-03-08 12:10:00,
2013-03-08 06:15:00,37.2,35.4,30.26,ENE,75,0.0,0.0,93,0.00,,,0.00,0.0,meteohub,2013-03-08 12:15:00,
2013-03-08 06:20:00,37.4,35.6,30.27,ENE,75,0.0,0.0,93,0.00,,,0.00,0.0,meteohub,2013-03-08 12:20:00,
2013-03-08 06:25:00,37.8,36.0,30.26,ENE,75,0.0,0.0,93,0.00,,,0.00,0.0,meteohub,2013-03-08 12:25:00,
2013-03-08 06:30:00,37.6,35.8,30.27,ENE,75,0.0,0.0,93,0.00,,,0.00,7.0,meteohub,2013-03-08 12:30:00,
2013-03-08 06:35:00,37.4,35.6,30.27,ENE,75,0.0,0.0,93,0.00,,,0.00,11.0,meteohub,2013-03-08 12:35:00,
2013-03-08 06:40:00,37.4,35.6,30.27,ENE,75,0.0,0.0,93,0.00,,,0.00,16.0,meteohub,2013-03-08 12:40:00,
2013-03-08 06:45:00,37.4,35.8,30.27,ENE,75,0.0,0.0,94,0.00,,,0.00,23.0,meteohub,2013-03-08 12:45:00,
2013-03-08 06:50:00,37.6,36.0,30.27,ENE,75,0.0,0.0,94,0.00,,,0.00,30.0,meteohub,2013-03-08 12:50:00,
2013-03-08 06:55:00,37.8,36.1,30.27,ENE,75,0.0,0.0,94,0.00,,,0.00,39.0,meteohub,2013-03-08 12:55:00,
2013-03-08 07:00:00,37.9,36.3,30.27,ENE,75,0.0,0.0,94,0.00,,,0.00,46.0,meteohub,2013-03-08 13:00:00,
2013-03-08 07:05:00,38.5,36.9,30.27,ENE,75,0.0,0.0,94,0.00,,,0.00,58.0,meteohub,2013-03-08 13:05:00,
2013-03-08 07:10:00,39.0,37.8,30.27,ENE,75,0.0,0.0,95,0.00,,,0.00,58.0,meteohub,2013-03-08 13:10:00,
2013-03-08 07:15:00,39.4,37.8,30.27,ENE,75,0.0,0.0,94,0.00,,,0.00,70.0,meteohub,2013-03-08 13:15:00,
2013-03-08 07:20:00,39.9,38.3,30.27,ENE,75,0.0,0.0,94,0.00,,,0.00,69.0,meteohub,2013-03-08 13:20:00,
2013-03-08 07:25:00,40.6,39.0,30.27,ENE,75,0.0,0.0,94,0.00,,,0.00,69.0,meteohub,2013-03-08 13:25:00,
2013-03-08 07:30:00,41.4,39.6,30.27,ENE,75,0.0,0.0,93,0.00,,,0.00,72.0,meteohub,2013-03-08 13:30:00,
2013-03-08 07:35:00,42.1,40.3,30.27,ENE,75,0.0,0.0,93,0.00,,,0.00,84.0,meteohub,2013-03-08 13:35:00,
2013-03-08 07:40:00,42.6,40.1,30.28,ENE,75,0.0,0.0,91,0.00,,,0.00,93.0,meteohub,2013-03-08 13:40:00,
2013-03-08 07:45:00,43.2,40.5,30.28,ENE,75,0.0,0.0,90,0.00,,,0.00,121.0,meteohub,2013-03-08 13:45:00,
2013-03-08 07:50:00,43.9,41.2,30.29,ENE,75,0.0,0.0,90,0.00,,,0.00,172.0,meteohub,2013-03-08 13:50:00,
2013-03-08 07:55:00,44.6,41.5,30.28,ENE,75,0.0,0.0,89,0.00,,,0.00,207.0,meteohub,2013-03-08 13:55:00,
2013-03-08 08:00:00,45.9,42.3,30.29,ENE,75,0.0,0.0,87,0.00,,,0.00,225.0,meteohub,2013-03-08 14:00:00,
2013-03-08 08:05:00,46.9,42.1,30.29,ENE,75,0.0,0.0,83,0.00,,,0.00,243.0,meteohub,2013-03-08 14:05:00,
2013-03-08 08:10:00,48.0,41.9,30.29,ENE,75,0.0,1.0,79,0.00,,,0.00,227.0,meteohub,2013-03-08 14:10:00,
2013-03-08 08:15:00,48.9,42.1,30.29,ENE,75,0.0,1.0,77,0.00,,,0.00,269.0,meteohub,2013-03-08 14:15:00,
2013-03-08 08:20:00,49.8,41.5,30.29,ENE,75,0.0,1.0,73,0.00,,,0.00,269.0,meteohub,2013-03-08 14:20:00,
2013-03-08 08:25:00,50.4,42.1,30.30,ENE,75,0.0,1.0,73,0.00,,,0.00,221.0,meteohub,2013-03-08 14:25:00,
2013-03-08 08:31:00,51.1,42.1,30.30,NE,44,0.0,1.0,71,0.00,,,0.00,325.0,meteohub,2013-03-08 14:31:00,
2013-03-08 08:35:00,51.8,43.3,30.29,NE,44,0.0,3.0,73,0.00,,,0.00,339.0,meteohub,2013-03-08 14:35:00,
2013-03-08 08:41:00,52.3,42.8,30.29,NNE,27,3.0,3.0,70,0.00,,,0.00,362.0,meteohub,2013-03-08 14:41:00,
2013-03-08 08:46:00,52.9,43.0,30.29,NNE,21,0.0,3.0,69,0.00,,,0.00,374.0,meteohub,2013-03-08 14:46:00,
2013-03-08 08:51:00,53.6,43.3,30.29,NNE,21,0.0,4.0,68,0.00,,,0.00,378.0,meteohub,2013-03-08 14:51:00,
2013-03-08 08:56:00,54.7,43.9,30.29,NNE,21,0.0,4.0,67,0.00,,,0.00,396.0,meteohub,2013-03-08 14:56:00,
2013-03-08 09:01:00,55.6,43.5,30.30,NNE,21,0.0,2.0,64,0.00,,,0.00,418.0,meteohub,2013-03-08 15:01:00,
2013-03-08 09:06:00,55.9,42.6,30.30,NNE,22,1.0,2.0,61,0.00,,,0.00,417.0,meteohub,2013-03-08 15:06:00,
2013-03-08 09:11:00,56.8,43.5,30.30,NNE,25,0.0,2.0,61,0.00,,,0.00,422.0,meteohub,2013-03-08 15:11:00,
2013-03-08 09:16:00,56.8,43.2,30.30,NNE,26,0.0,3.0,60,0.00,,,0.00,473.0,meteohub,2013-03-08 15:16:00,
2013-03-08 09:21:00,57.9,43.7,30.30,NE,37,0.0,3.0,59,0.00,,,0.00,492.0,meteohub,2013-03-08 15:21:00,
2013-03-08 09:26:00,58.5,43.7,30.30,NE,40,2.0,3.0,58,0.00,,,0.00,515.0,meteohub,2013-03-08 15:26:00,
2013-03-08 09:31:00,58.6,43.9,30.30,NE,36,0.0,3.0,58,0.00,,,0.00,527.0,meteohub,2013-03-08 15:31:00,
2013-03-08 09:36:00,59.4,45.0,30.30,ENE,65,2.0,3.0,59,0.00,,,0.00,545.0,meteohub,2013-03-08 15:36:00,
2013-03-08 09:41:00,59.5,44.8,30.29,NE,38,2.0,4.0,58,0.00,,,0.00,548.0,meteohub,2013-03-08 15:41:00,
2013-03-08 09:46:00,60.3,44.4,30.29,North,352,2.0,4.0,56,0.00,,,0.00,510.0,meteohub,2013-03-08 15:46:00,
2013-03-08 09:51:00,60.4,45.1,30.29,NE,34,1.0,4.0,57,0.00,,,0.00,543.0,meteohub,2013-03-08 15:51:00,
2013-03-08 09:56:00,60.6,44.4,30.29,East,96,0.0,4.0,55,0.00,,,0.00,531.0,meteohub,2013-03-08 15:56:00,
2013-03-08 10:01:00,61.0,45.1,30.29,NNE,19,2.0,4.0,56,-99.99,,,0.00,487.0,meteohub,2013-03-08 16:01:00,
2013-03-08 10:06:00,61.3,44.6,30.29,ENE,59,0.0,4.0,54,0.00,,,0.00,580.0,meteohub,2013-03-08 16:06:00,
2013-03-08 10:11:00,61.9,44.6,30.29,NNE,23,2.0,5.0,53,0.00,,,0.00,591.0,meteohub,2013-03-08 16:11:00,
2013-03-08 10:16:00,62.4,44.6,30.29,NNE,19,4.0,6.0,52,0.00,,,0.00,585.0,meteohub,2013-03-08 16:16:00,
2013-03-08 10:21:00,62.4,44.6,30.29,ENE,77,0.0,6.0,52,0.00,,,0.00,585.0,meteohub,2013-03-08 16:21:00,
2013-03-08 10:26:00,63.0,45.1,30.28,ENE,64,1.0,7.0,52,0.00,,,0.00,601.0,meteohub,2013-03-08 16:26:00,
2013-03-08 10:31:00,63.3,45.0,30.29,NE,50,0.0,7.0,51,0.00,,,0.00,621.0,meteohub,2013-03-08 16:31:00,
2013-03-08 10:36:00,63.5,45.0,30.29,NNE,32,0.0,7.0,51,0.00,,,0.00,619.0,meteohub,2013-03-08 16:36:00,
2013-03-08 10:41:00,64.0,45.0,30.29,East,96,0.0,7.0,50,0.00,,,0.00,636.0,meteohub,2013-03-08 16:41:00,
2013-03-08 10:46:00,64.2,45.1,30.29,NE,44,0.0,7.0,50,0.00,,,0.00,659.0,meteohub,2013-03-08 16:46:00,
2013-03-08 10:51:00,64.8,44.1,30.30,NE,35,8.0,9.0,47,0.00,,,0.00,686.0,meteohub,2013-03-08 16:51:00,
2013-03-08 10:56:00,64.8,44.1,30.29,East,91,7.0,9.0,47,0.00,,,0.00,703.0,meteohub,2013-03-08 16:56:00,
2013-03-08 11:01:00,64.6,43.9,30.29,East,94,0.0,9.0,47,0.00,,,0.00,751.0,meteohub,2013-03-08 17:01:00,
2013-03-08 11:06:00,64.9,44.2,30.29,NE,34,6.0,9.0,47,0.00,,,0.00,773.0,meteohub,2013-03-08 17:06:00,
2013-03-08 11:11:00,64.8,44.6,30.29,NNE,23,3.0,11.0,48,0.00,,,0.00,802.0,meteohub,2013-03-08 17:11:00,
2013-03-08 11:16:00,64.9,44.8,30.29,ESE,107,0.0,11.0,48,0.00,,,0.00,819.0,meteohub,2013-03-08 17:16:00,
2013-03-08 11:21:00,65.7,46.0,30.28,NE,45,0.0,11.0,49,0.00,,,0.00,838.0,meteohub,2013-03-08 17:21:00,
2013-03-08 11:26:00,66.4,45.5,30.28,NNE,25,1.0,8.0,47,0.00,,,0.00,847.0,meteohub,2013-03-08 17:26:00,
2013-03-08 11:31:00,66.0,45.7,30.28,ESE,107,0.0,7.0,48,0.00,,,0.00,842.0,meteohub,2013-03-08 17:31:00,
2013-03-08 11:36:00,66.4,45.5,30.28,ESE,115,0.0,7.0,47,0.00,,,0.00,831.0,meteohub,2013-03-08 17:36:00,
2013-03-08 11:41:00,66.2,45.9,30.28,North,9,4.0,9.0,48,0.00,,,0.00,838.0,meteohub,2013-03-08 17:41:00,
2013-03-08 11:46:00,65.8,45.0,30.28,NE,54,1.0,9.0,47,0.00,,,0.00,840.0,meteohub,2013-03-08 17:46:00,
2013-03-08 11:51:00,66.0,46.4,30.27,NE,56,2.0,9.0,49,0.00,,,0.00,791.0,meteohub,2013-03-08 17:51:00,
2013-03-08 11:56:00,67.1,46.8,30.27,ESE,111,0.0,6.0,48,0.00,,,0.00,817.0,meteohub,2013-03-08 17:56:00,
2013-03-08 12:01:00,67.3,45.9,30.26,East,94,0.0,5.0,46,0.00,,,0.00,831.0,meteohub,2013-03-08 18:01:00,
2013-03-08 12:06:00,67.6,46.0,30.26,NNE,17,3.0,10.0,46,0.00,,,0.00,780.0,meteohub,2013-03-08 18:06:00,
2013-03-08 12:11:00,67.6,45.5,30.26,East,96,3.0,10.0,45,0.00,,,0.00,846.0,meteohub,2013-03-08 18:11:00,
2013-03-08 12:16:00,68.0,45.3,30.26,NNE,32,3.0,10.0,44,0.00,,,0.00,865.0,meteohub,2013-03-08 18:16:00,
2013-03-08 12:22:00,68.5,45.1,30.26,North,5,4.0,9.0,43,0.00,,,0.00,821.0,meteohub,2013-03-08 18:22:00,
2013-03-08 12:27:00,68.0,45.3,30.25,NE,34,1.0,9.0,44,0.00,,,0.00,803.0,meteohub,2013-03-08 18:27:00,
2013-03-08 12:32:00,68.5,45.7,30.25,ESE,102,5.0,9.0,44,0.00,,,0.00,782.0,meteohub,2013-03-08 18:32:00,
2013-03-08 12:37:00,68.2,44.2,30.25,ESE,117,2.0,9.0,42,0.00,,,0.00,698.0,meteohub,2013-03-08 18:37:00,
2013-03-08 12:42:00,67.6,45.0,30.25,SE,125,0.0,9.0,44,0.00,,,0.00,693.0,meteohub,2013-03-08 18:42:00,
2013-03-08 12:47:00,67.8,45.7,30.25,NNE,30,0.0,8.0,45,0.00,,,0.00,633.0,meteohub,2013-03-08 18:47:00,
2013-03-08 12:52:00,67.6,46.0,30.25,NNE,22,4.0,7.0,46,0.00,,,0.00,612.0,meteohub,2013-03-08 18:52:00,
2013-03-08 12:57:00,67.8,46.2,30.25,NE,48,0.0,7.0,46,0.00,,,0.00,610.0,meteohub,2013-03-08 18:57:00,
2013-03-08 13:02:00,67.8,46.2,30.25,NNE,21,4.0,6.0,46,0.00,,,0.00,613.0,meteohub,2013-03-08 19:02:00,
2013-03-08 13:07:00,67.3,46.9,30.24,NNE,30,0.0,6.0,48,0.00,,,0.00,473.0,meteohub,2013-03-08 19:07:00,
2013-03-08 13:12:00,67.6,46.0,30.23,East,88,0.0,6.0,46,0.00,,,0.00,503.0,meteohub,2013-03-08 19:12:00,
2013-03-08 13:17:00,67.6,46.8,30.23,NE,40,0.0,6.0,47,0.00,,,0.00,374.0,meteohub,2013-03-08 19:17:00,
2013-03-08 13:22:00,67.3,46.9,30.23,East,86,0.0,7.0,48,0.00,,,0.00,638.0,meteohub,2013-03-08 19:22:00,
2013-03-08 13:27:00,67.6,46.8,30.23,NE,50,2.0,7.0,47,0.00,,,0.00,629.0,meteohub,2013-03-08 19:27:00,
2013-03-08 13:32:00,67.8,46.2,30.23,East,99,0.0,7.0,46,0.00,,,0.00,679.0,meteohub,2013-03-08 19:32:00,
2013-03-08 13:37:00,68.2,46.0,30.22,NNE,15,4.0,5.0,45,0.00,,,0.00,490.0,meteohub,2013-03-08 19:37:00,
2013-03-08 13:42:00,67.8,45.7,30.22,ENE,69,0.0,5.0,45,0.00,,,0.00,311.0,meteohub,2013-03-08 19:42:00,
2013-03-08 13:47:00,68.7,47.1,30.22,ESE,109,0.0,5.0,46,0.00,,,0.00,543.0,meteohub,2013-03-08 19:47:00,
2013-03-08 13:52:00,69.1,46.2,30.22,NNE,29,3.0,7.0,44,0.00,,,0.00,526.0,meteohub,2013-03-08 19:52:00,
2013-03-08 13:57:00,67.8,45.7,30.22,NE,41,0.0,7.0,45,0.00,,,0.00,714.0,meteohub,2013-03-08 19:57:00,
2013-03-08 14:02:00,68.4,45.0,30.22,NNE,21,3.0,7.0,43,0.00,,,0.00,471.0,meteohub,2013-03-08 20:02:00,
2013-03-08 14:07:00,68.4,45.0,30.22,ESE,121,0.0,5.0,43,0.00,,,0.00,255.0,meteohub,2013-03-08 20:07:00,
2013-03-08 14:12:00,68.0,44.6,30.22,SE,126,0.0,5.0,43,0.00,,,0.00,345.0,meteohub,2013-03-08 20:12:00,
2013-03-08 14:17:00,68.4,46.8,30.21,NE,40,3.0,5.0,46,0.00,,,0.00,524.0,meteohub,2013-03-08 20:17:00,
2013-03-08 14:22:00,68.5,46.4,30.21,ENE,59,3.0,7.0,45,0.00,,,0.00,613.0,meteohub,2013-03-08 20:22:00,
2013-03-08 14:27:00,69.1,46.8,30.20,NNE,25,5.0,7.0,45,0.00,,,0.00,378.0,meteohub,2013-03-08 20:27:00,
2013-03-08 14:32:00,69.1,46.2,30.20,NE,51,1.0,7.0,44,0.00,,,0.00,575.0,meteohub,2013-03-08 20:32:00,
2013-03-08 14:37:00,69.6,45.5,30.20,NNE,25,1.0,10.0,42,0.00,,,0.00,617.0,meteohub,2013-03-08 20:37:00,
2013-03-08 14:42:00,70.2,45.3,30.19,NNE,29,4.0,10.0,41,0.00,,,0.00,555.0,meteohub,2013-03-08 20:42:00,
2013-03-08 14:47:00,70.0,45.1,30.19,NNE,33,1.0,7.0,41,0.00,,,0.00,334.0,meteohub,2013-03-08 20:47:00,
2013-03-08 14:52:00,70.2,43.3,30.19,NNE,32,2.0,7.0,38,0.00,,,0.00,410.0,meteohub,2013-03-08 20:52:00,
2013-03-08 14:57:00,69.1,42.4,30.19,NE,50,0.0,7.0,38,0.00,,,0.00,304.0,meteohub,2013-03-08 20:57:00,
2013-03-08 15:02:00,69.1,43.2,30.19,NE,43,1.0,6.0,39,0.00,,,0.00,482.0,meteohub,2013-03-08 21:02:00,
2013-03-08 15:07:00,69.3,41.9,30.19,East,94,2.0,6.0,37,0.00,,,0.00,338.0,meteohub,2013-03-08 21:07:00,
2013-03-08 15:12:00,69.8,42.4,30.18,North,359,3.0,9.0,37,0.00,,,0.00,260.0,meteohub,2013-03-08 21:12:00,
2013-03-08 15:17:00,70.0,41.7,30.18,NNE,32,1.0,9.0,36,0.00,,,0.00,452.0,meteohub,2013-03-08 21:17:00,
2013-03-08 15:22:00,69.6,42.3,30.18,NE,34,1.0,9.0,37,0.00,,,0.00,422.0,meteohub,2013-03-08 21:22:00,
2013-03-08 15:27:00,70.0,43.9,30.18,NNE,23,5.0,9.0,39,0.00,,,0.00,432.0,meteohub,2013-03-08 21:27:00,
2013-03-08 15:32:00,69.4,44.1,30.18,North,2,3.0,9.0,40,0.00,,,0.00,130.0,meteohub,2013-03-08 21:32:00,
2013-03-08 15:37:00,69.4,44.1,30.18,North,352,4.0,9.0,40,0.00,,,0.00,130.0,meteohub,2013-03-08 21:37:00,
2013-03-08 15:42:00,70.0,43.9,30.17,NNE,27,3.0,9.0,39,0.00,,,0.00,366.0,meteohub,2013-03-08 21:42:00,
2013-03-08 15:47:00,70.0,44.6,30.17,North,7,1.0,7.0,40,0.00,,,0.00,269.0,meteohub,2013-03-08 21:47:00,
2013-03-08 15:52:00,69.8,44.4,30.16,NNE,12,3.0,8.0,40,0.00,,,0.00,318.0,meteohub,2013-03-08 21:52:00,
2013-03-08 15:57:00,70.2,44.1,30.16,NE,50,1.0,10.0,39,0.00,,,0.00,287.0,meteohub,2013-03-08 21:57:00,
2013-03-08 16:02:00,70.5,44.4,30.15,ENE,68,1.0,10.0,39,0.00,,,0.00,229.0,meteohub,2013-03-08 22:02:00,
2013-03-08 16:07:00,70.3,45.0,30.15,NNE,15,3.0,10.0,40,0.00,,,0.00,93.0,meteohub,2013-03-08 22:07:00,
2013-03-08 16:12:00,70.3,45.0,30.15,ENE,61,3.0,7.0,40,0.00,,,0.00,211.0,meteohub,2013-03-08 22:12:00,
2013-03-08 16:17:00,70.0,44.6,30.16,ENE,76,4.0,7.0,40,0.00,,,0.00,169.0,meteohub,2013-03-08 22:17:00,
2013-03-08 16:22:00,69.6,45.0,30.16,NNE,27,5.0,6.0,41,0.00,,,0.00,114.0,meteohub,2013-03-08 22:22:00,
2013-03-08 16:27:00,69.4,44.8,30.15,NE,49,0.0,10.0,41,0.00,,,0.00,116.0,meteohub,2013-03-08 22:27:00,
2013-03-08 16:32:00,69.4,43.3,30.15,NE,34,3.0,10.0,39,0.00,,,0.00,127.0,meteohub,2013-03-08 22:32:00,
2013-03-08 16:37:00,69.3,42.6,30.15,NE,42,1.0,8.0,38,0.00,,,0.00,118.0,meteohub,2013-03-08 22:37:00,
2013-03-08 16:42:00,69.3,43.2,30.15,NE,53,1.0,7.0,39,0.00,,,0.00,200.0,meteohub,2013-03-08 22:42:00,
2013-03-08 16:47:00,69.4,44.1,30.15,NE,35,2.0,7.0,40,0.00,,,0.00,169.0,meteohub,2013-03-08 22:47:00,
2013-03-08 16:52:00,69.3,44.6,30.15,NNE,31,4.0,7.0,41,0.00,,,0.00,167.0,meteohub,2013-03-08 22:52:00,
2013-03-08 16:57:00,69.1,45.0,30.15,NE,48,4.0,7.0,42,0.00,,,0.00,130.0,meteohub,2013-03-08 22:57:00,
2013-03-08 17:03:00,69.1,44.4,30.15,ENE,61,2.0,7.0,41,0.00,,,0.00,162.0,meteohub,2013-03-08 23:03:00,
2013-03-08 17:08:00,68.9,44.2,30.15,NE,38,0.0,7.0,41,0.00,,,0.00,70.0,meteohub,2013-03-08 23:08:00,
2013-03-08 17:13:00,68.9,43.5,30.15,NE,40,0.0,6.0,40,0.00,,,0.00,54.0,meteohub,2013-03-08 23:13:00,
2013-03-08 17:18:00,68.7,42.8,30.15,ENE,77,0.0,7.0,39,0.00,,,0.00,47.0,meteohub,2013-03-08 23:18:00,
2013-03-08 17:23:00,68.4,43.2,30.14,NE,48,0.0,7.0,40,0.00,,,0.00,40.0,meteohub,2013-03-08 23:23:00,
2013-03-08 17:28:00,68.2,43.0,30.14,NNE,29,0.0,7.0,40,0.00,,,0.00,33.0,meteohub,2013-03-08 23:28:00,
2013-03-08 17:33:00,67.8,43.3,30.14,NE,40,0.0,7.0,41,0.00,,,0.00,30.0,meteohub,2013-03-08 23:33:00,
2013-03-08 17:38:00,67.6,43.2,30.15,NNE,21,0.0,5.0,41,0.00,,,0.00,23.0,meteohub,2013-03-08 23:38:00,
2013-03-08 17:43:00,67.5,43.5,30.15,NE,35,1.0,5.0,42,0.00,,,0.00,16.0,meteohub,2013-03-08 23:43:00,
2013-03-08 17:48:00,67.1,43.2,30.15,ENE,61,0.0,5.0,42,0.00,,,0.00,11.0,meteohub,2013-03-08 23:48:00,
2013-03-08 17:53:00,66.7,44.1,30.15,NE,41,1.0,5.0,44,0.00,,,0.00,9.0,meteohub,2013-03-08 23:53:00,
2013-03-08 17:58:00,66.4,44.4,30.15,NE,43,0.0,3.0,45,0.00,,,0.00,7.0,meteohub,2013-03-08 23:58:00,
2013-03-08 18:03:00,66.0,44.6,30.15,ENE,59,0.0,4.0,46,0.00,,,0.00,5.0,meteohub,2013-03-09 00:03:00,
2013-03-08 18:08:00,65.5,44.8,30.15,ENE,59,0.0,4.0,47,0.00,,,0.00,0.0,meteohub,2013-03-09 00:08:00,
2013-03-08 18:13:00,64.9,44.2,30.15,ENE,59,0.0,3.0,47,0.00,,,0.00,0.0,meteohub,2013-03-09 00:13:00,
2013-03-08 18:18:00,64.6,45.0,30.16,NE,52,0.0,1.0,49,0.00,,,0.00,0.0,meteohub,2013-03-09 00:18:00,
2013-03-08 18:23:00,64.2,44.6,30.16,NE,52,0.0,2.0,49,0.00,,,0.00,0.0,meteohub,2013-03-09 00:23:00,
2013-03-08 18:28:00,63.9,44.8,30.16,NE,52,0.0,2.0,50,0.00,,,0.00,0.0,meteohub,2013-03-09 00:28:00,
2013-03-08 18:33:00,63.1,44.8,30.16,NE,52,0.0,2.0,51,0.00,,,0.00,0.0,meteohub,2013-03-09 00:33:00,
2013-03-08 18:38:00,62.2,44.4,30.16,NE,52,0.0,0.0,52,0.00,,,0.00,0.0,meteohub,2013-03-09 00:38:00,
2013-03-08 18:43:00,61.9,44.6,30.16,NE,52,0.0,0.0,53,0.00,,,0.00,0.0,meteohub,2013-03-09 00:43:00,
2013-03-08 18:48:00,61.9,45.1,30.17,NE,52,0.0,0.0,54,0.00,,,0.00,0.0,meteohub,2013-03-09 00:48:00,
2013-03-08 18:53:00,61.3,44.6,30.17,NE,52,0.0,0.0,54,0.00,,,0.00,0.0,meteohub,2013-03-09 00:53:00,
2013-03-08 18:58:00,61.3,45.0,30.17,NE,52,0.0,0.0,55,0.00,,,0.00,0.0,meteohub,2013-03-09 00:58:00,
2013-03-08 19:03:00,61.0,45.1,30.16,NE,52,0.0,0.0,56,0.00,,,0.00,0.0,meteohub,2013-03-09 01:03:00,
2013-03-08 19:08:00,60.6,45.3,30.16,NE,52,0.0,0.0,57,0.00,,,0.00,0.0,meteohub,2013-03-09 01:08:00,
2013-03-08 19:13:00,60.4,45.7,30.16,NE,52,0.0,0.0,58,0.00,,,0.00,0.0,meteohub,2013-03-09 01:13:00,
2013-03-08 19:18:00,60.1,45.3,30.17,NE,52,0.0,0.0,58,0.00,,,0.00,0.0,meteohub,2013-03-09 01:18:00,
2013-03-08 19:23:00,59.5,45.7,30.17,NE,52,0.0,0.0,60,0.00,,,0.00,0.0,meteohub,2013-03-09 01:23:00,
2013-03-08 19:28:00,59.0,45.5,30.17,NE,52,0.0,0.0,61,0.00,,,0.00,0.0,meteohub,2013-03-09 01:28:00,
2013-03-08 19:33:00,58.5,45.5,30.17,NE,52,0.0,0.0,62,0.00,,,0.00,0.0,meteohub,2013-03-09 01:33:00,
2013-03-08 19:39:00,58.5,45.5,30.17,NE,52,0.0,0.0,62,0.00,,,0.00,0.0,meteohub,2013-03-09 01:39:00,
2013-03-08 19:44:00,58.5,45.5,30.17,NE,52,0.0,0.0,62,0.00,,,0.00,0.0,meteohub,2013-03-09 01:44:00,
2013-03-08 19:49:00,58.6,46.0,30.17,NE,52,0.0,0.0,63,0.00,,,0.00,0.0,meteohub,2013-03-09 01:49:00,
2013-03-08 19:54:00,59.0,46.0,30.17,NE,52,0.0,0.0,62,0.00,,,0.00,0.0,meteohub,2013-03-09 01:54:00,
2013-03-08 19:59:00,59.0,46.0,30.17,NE,52,0.0,0.0,62,0.00,,,0.00,0.0,meteohub,2013-03-09 01:59:00,
2013-03-08 20:04:00,59.0,46.0,30.17,ESE,103,0.0,0.0,62,0.00,,,0.00,0.0,meteohub,2013-03-09 02:04:00,
2013-03-08 20:09:00,59.0,45.5,30.17,ESE,103,0.0,4.0,61,0.00,,,0.00,0.0,meteohub,2013-03-09 02:09:00,
2013-03-08 20:14:00,59.2,46.2,30.17,ESE,103,0.0,4.0,62,0.00,,,0.00,0.0,meteohub,2013-03-09 02:14:00,
2013-03-08 20:19:00,59.2,46.2,30.17,ESE,103,0.0,4.0,62,0.00,,,0.00,0.0,meteohub,2013-03-09 02:19:00,
2013-03-08 20:24:00,59.0,46.0,30.18,ESE,103,0.0,0.0,62,0.00,,,0.00,0.0,meteohub,2013-03-09 02:24:00,
2013-03-08 20:29:00,59.0,46.0,30.19,ESE,103,0.0,0.0,62,0.00,,,0.00,0.0,meteohub,2013-03-09 02:29:00,
2013-03-08 20:34:00,58.6,46.6,30.19,ESE,103,0.0,0.0,64,0.00,,,0.00,0.0,meteohub,2013-03-09 02:34:00,
2013-03-08 20:39:00,57.9,46.6,30.19,ESE,103,0.0,0.0,66,0.00,,,0.00,0.0,meteohub,2013-03-09 02:39:00,
2013-03-08 20:44:00,58.3,46.6,30.18,ESE,103,0.0,0.0,65,0.00,,,0.00,0.0,meteohub,2013-03-09 02:44:00,
2013-03-08 20:49:00,58.3,46.2,30.18,ESE,103,0.0,0.0,64,0.00,,,0.00,0.0,meteohub,2013-03-09 02:49:00,
2013-03-08 20:54:00,58.3,46.2,30.17,ESE,103,0.0,0.0,64,0.00,,,0.00,0.0,meteohub,2013-03-09 02:54:00,
2013-03-08 20:59:00,58.5,46.8,30.17,ESE,103,0.0,0.0,65,0.00,,,0.00,0.0,meteohub,2013-03-09 02:59:00,
2013-03-08 21:04:00,58.3,46.6,30.17,ESE,103,0.0,0.0,65,0.00,,,0.00,0.0,meteohub,2013-03-09 03:04:00,
2013-03-08 21:09:00,58.1,46.4,30.17,ESE,103,0.0,0.0,65,0.00,,,0.00,0.0,meteohub,2013-03-09 03:09:00,
2013-03-08 21:14:00,58.3,46.6,30.17,ESE,103,0.0,0.0,65,0.00,,,0.00,0.0,meteohub,2013-03-09 03:14:00,
2013-03-08 21:19:00,58.3,46.6,30.17,ESE,103,0.0,0.0,65,0.00,,,0.00,0.0,meteohub,2013-03-09 03:19:00,
2013-03-08 21:24:00,58.3,46.2,30.17,SE,132,1.0,1.0,64,0.00,,,0.00,0.0,meteohub,2013-03-09 03:24:00,
2013-03-08 21:29:00,59.0,46.0,30.17,SE,130,0.0,6.0,62,0.00,,,0.00,0.0,meteohub,2013-03-09 03:29:00,
2013-03-08 21:34:00,59.0,45.5,30.17,NE,46,0.0,6.0,61,0.00,,,0.00,0.0,meteohub,2013-03-09 03:34:00,
2013-03-08 21:39:00,59.2,45.7,30.17,East,92,3.0,6.0,61,0.00,,,0.00,0.0,meteohub,2013-03-09 03:39:00,
2013-03-08 21:44:00,59.0,45.5,30.17,ESE,106,0.0,3.0,61,0.00,,,0.00,0.0,meteohub,2013-03-09 03:44:00,
2013-03-08 21:49:00,59.0,46.0,30.17,ESE,107,3.0,3.0,62,0.00,,,0.00,0.0,meteohub,2013-03-09 03:49:00,
2013-03-08 21:54:00,59.0,46.0,30.16,East,95,0.0,6.0,62,0.00,,,0.00,0.0,meteohub,2013-03-09 03:54:00,
2013-03-08 21:59:00,59.0,46.0,30.16,SE,128,2.0,6.0,62,0.00,,,0.00,0.0,meteohub,2013-03-09 03:59:00,
2013-03-08 22:04:00,59.0,45.5,30.15,East,89,0.0,6.0,61,0.00,,,0.00,0.0,meteohub,2013-03-09 04:04:00,
2013-03-08 22:09:00,59.0,46.0,30.15,East,90,1.0,5.0,62,0.00,,,0.00,0.0,meteohub,2013-03-09 04:09:00,
2013-03-08 22:14:00,59.0,46.0,30.14,ENE,65,0.0,5.0,62,0.00,,,0.00,0.0,meteohub,2013-03-09 04:14:00,
2013-03-08 22:19:00,59.0,46.0,30.14,NE,54,0.0,5.0,62,0.00,,,0.00,0.0,meteohub,2013-03-09 04:19:00,
2013-03-08 22:24:00,58.8,45.9,30.14,ESE,108,5.0,5.0,62,0.00,,,0.00,0.0,meteohub,2013-03-09 04:24:00,
2013-03-08 22:29:00,58.8,45.9,30.14,ENE,65,0.0,5.0,62,0.00,,,0.00,0.0,meteohub,2013-03-09 04:29:00,
2013-03-08 22:34:00,58.6,46.0,30.14,ENE,65,1.0,5.0,63,0.00,,,0.00,0.0,meteohub,2013-03-09 04:34:00,
2013-03-08 22:39:00,58.5,45.9,30.14,ENE,66,0.0,5.0,63,0.00,,,0.00,0.0,meteohub,2013-03-09 04:39:00,
2013-03-08 22:44:00,58.5,45.9,30.14,ESE,108,0.0,1.0,63,0.00,,,0.00,0.0,meteohub,2013-03-09 04:44:00,
2013-03-08 22:50:00,58.3,45.7,30.14,East,96,0.0,2.0,63,0.00,,,0.00,0.0,meteohub,2013-03-09 04:50:00,
2013-03-08 22:55:00,58.3,45.7,30.14,East,96,0.0,2.0,63,0.00,,,0.00,0.0,meteohub,2013-03-09 04:55:00,
2013-03-08 23:00:00,58.3,45.7,30.14,ESE,103,0.0,4.0,63,0.00,,,0.00,0.0,meteohub,2013-03-09 05:00:00,
2013-03-08 23:05:00,58.3,45.7,30.13,ENE,71,0.0,4.0,63,0.00,,,0.00,0.0,meteohub,2013-03-09 05:05:00,
2013-03-08 23:10:00,58.1,45.5,30.12,ENE,67,0.0,4.0,63,0.00,,,0.00,0.0,meteohub,2013-03-09 05:10:00,
2013-03-08 23:15:00,58.1,46.0,30.12,NE,55,0.0,4.0,64,0.00,,,0.00,0.0,meteohub,2013-03-09 05:15:00,
2013-03-08 23:20:00,58.1,46.0,30.12,ENE,58,0.0,2.0,64,0.00,,,0.00,0.0,meteohub,2013-03-09 05:20:00,
2013-03-08 23:25:00,57.9,46.2,30.11,NE,42,0.0,2.0,65,0.00,,,0.00,0.0,meteohub,2013-03-09 05:25:00,
2013-03-08 23:30:00,58.1,46.4,30.11,ENE,73,0.0,3.0,65,0.00,,,0.00,0.0,meteohub,2013-03-09 05:30:00,
2013-03-08 23:35:00,57.9,46.2,30.11,ENE,57,0.0,6.0,65,0.00,,,0.00,0.0,meteohub,2013-03-09 05:35:00,
2013-03-08 23:40:00,58.1,46.4,30.10,ENE,63,0.0,6.0,65,0.00,,,0.00,0.0,meteohub,2013-03-09 05:40:00,
2013-03-08 23:45:00,57.9,46.6,30.10,ENE,58,0.0,6.0,66,0.00,,,0.00,0.0,meteohub,2013-03-09 05:45:00,
2013-03-08 23:50:00,57.9,46.6,30.10,ENE,59,0.0,5.0,66,0.00,,,0.00,0.0,meteohub,2013-03-09 05:50:00,
2013-03-08 23:55:00,57.9,46.9,30.10,ENE,68,0.0,4.0,67,0.00,,,0.00,0.0,meteohub,2013-03-09 05:55:00,